Airfield :
LOGIN :

Register | Disclaimer

   EN    FR    IT 

 










Legend :    VFR   Marginal VFR   IFR   Intensive IFR   Very Intensive IFR
Visi :
Ceiling :
>= 8 km
>= 3000ft
5 to 8 km
1000 to 3000 ft
1500m to 5 km
500 to 1000 ft
800 to 1500m
200 to 500 ft
< 800m
< 200 ft
Symbols :   Thunderstorms  Fog  Heavy snow  Heavy precipitations  Wind > 20 kt
SIGMETs :     Misc.  Thunderstorms  Icing  Turbulence  Mountain Waves  Volcanic Ashes






- Airport Elevation : 125 ft
- IATA code : MGL


EDLN - Mönchengladbach

CURRENT METAR :
  • 041350Z 05005KT 020V080 9999 OVC018 02/M02 Q1016

EXPIRED METARs :
  • 041320Z 05005KT 9999 OVC017 02/M02 Q1016
  • 041250Z 07005KT 030V100 9999 OVC017 02/M02 Q1016
  • 041220Z 06006KT 9999 OVC018 02/M02 Q1016
  • 041150Z 04006KT 010V070 9999 OVC017 02/M02 Q1016

TAF TAF EDLN
Valid from the 04 at 12:00 until the 04 at 21:00 UTC


041100Z 0412/0421 05007KT 9999 BKN020
TEMPO 0417/0421 BKN012



MET'MAP, your aeronautical weather chart ! - Copyright ORBIFLY December 2007 - Disclaimer

ORBIFLY MET'MAP TEAM :

Programming & Development : Alexandra Zaïnal
Original concept : Baudouin d'Aumeries
Technical & hardware support : Manuel Goepfert
Assistance : Marc-Olivier Méhu




SOURCES & CREDITS :

   NOAA